createdAt,value
2022-09-10T00:00:12.100Z,73.61
2022-09-10T00:01:18.044Z,73.62
2022-09-10T00:02:19.624Z,73.57
2022-09-10T00:03:22.534Z,73.39
2022-09-10T00:04:24.125Z,73.62
2022-09-10T00:05:27.637Z,73.47
2022-09-10T00:06:32.948Z,73.36
2022-09-10T00:07:35.474Z,73.61
2022-09-10T00:08:38.091Z,73.63
2022-09-10T00:09:40.702Z,73.29
2022-09-10T00:10:44.853Z,73.70
2022-09-10T00:11:47.667Z,73.65
2022-09-10T00:12:51.123Z,73.67
2022-09-10T00:13:54.965Z,73.73
2022-09-10T00:14:56.491Z,73.42
2022-09-10T00:15:59.675Z,73.49
2022-09-10T00:17:01.630Z,73.37
2022-09-10T00:18:04.195Z,73.71
2022-09-10T00:19:06.540Z,73.29
2022-09-10T00:20:10.217Z,73.36
2022-09-10T00:21:14.546Z,73.25
2022-09-10T00:22:17.046Z,73.19
2022-09-10T00:23:21.120Z,73.22
2022-09-10T00:24:24.086Z,73.19
2022-09-10T00:25:29.093Z,73.26
2022-09-10T00:26:35.205Z,73.05
2022-09-10T00:27:37.064Z,73.11
2022-09-10T00:28:40.940Z,73.26
2022-09-10T00:29:42.471Z,73.27
2022-09-10T00:30:47.269Z,73.18
2022-09-10T00:31:49.409Z,73.24
2022-09-10T00:32:52.891Z,72.98
2022-09-10T00:33:54.680Z,72.87
2022-09-10T00:34:57.485Z,72.95
2022-09-10T00:35:59.451Z,72.77
2022-09-10T00:37:02.222Z,73.08
2022-09-10T00:38:04.181Z,73.06
2022-09-10T00:39:09.471Z,73.01
2022-09-10T00:40:11.497Z,72.69
2022-09-10T00:41:15.229Z,72.69
2022-09-10T00:42:18.891Z,72.67
2022-09-10T00:43:23.932Z,72.40
2022-09-10T00:45:03.518Z,72.76
2022-09-10T00:46:06.517Z,72.37
2022-09-10T00:47:14.389Z,72.46
2022-09-10T00:48:20.170Z,72.38
2022-09-10T00:49:26.941Z,72.69
2022-09-10T00:50:33.160Z,72.35
2022-09-10T00:51:36.552Z,72.73
2022-09-10T00:52:40.064Z,72.40
2022-09-10T00:53:43.199Z,72.69
2022-09-10T00:54:48.848Z,72.44
2022-09-10T00:55:54.561Z,72.80
2022-09-10T00:57:02.418Z,72.69
2022-09-10T00:58:06.750Z,72.80
2022-09-10T00:59:12.021Z,72.69
2022-09-10T01:00:15.972Z,72.78
2022-09-10T01:01:20.154Z,72.54
2022-09-10T01:02:22.169Z,72.77
2022-09-10T01:03:26.192Z,72.63
2022-09-10T01:04:28.697Z,72.54
2022-09-10T01:05:31.425Z,72.60
2022-09-10T01:06:34.855Z,72.69
2022-09-10T01:07:37.783Z,72.45
2022-09-10T01:08:39.472Z,72.63
2022-09-10T01:09:43.115Z,72.46
2022-09-10T01:10:58.685Z,72.50
2022-09-10T01:12:15.978Z,72.64
2022-09-10T01:13:32.928Z,72.42
2022-09-10T01:14:57.230Z,72.47
2022-09-10T01:16:09.953Z,72.29
2022-09-10T01:17:24.324Z,72.42
2022-09-10T01:18:33.287Z,72.58
2022-09-10T01:19:59.160Z,72.41
2022-09-10T01:21:08.720Z,72.39
2022-09-10T01:22:26.564Z,72.37
2022-09-10T01:24:04.763Z,72.64
2022-09-10T01:25:17.049Z,72.73
2022-09-10T01:26:29.976Z,72.43
2022-09-10T01:27:41.095Z,72.48
2022-09-10T01:28:49.258Z,72.74
2022-09-10T01:29:57.857Z,72.35
2022-09-10T01:31:11.326Z,72.50
2022-09-10T01:32:16.928Z,72.47
2022-09-10T01:33:26.793Z,72.83
2022-09-10T01:34:33.446Z,72.58
2022-09-10T01:35:41.266Z,72.39
2022-09-10T01:36:47.976Z,72.68
2022-09-10T01:37:54.169Z,72.59
2022-09-10T01:38:55.985Z,72.73
2022-09-10T01:40:01.043Z,72.60
2022-09-10T01:41:02.883Z,72.57
2022-09-10T01:42:05.560Z,72.55
2022-09-10T01:43:09.835Z,72.80
2022-09-10T01:44:42.054Z,72.80
2022-09-10T01:45:58.245Z,72.85
2022-09-10T01:47:12.806Z,72.82
2022-09-10T01:48:42.797Z,72.81
2022-09-10T01:50:01.630Z,72.58
2022-09-10T01:51:11.559Z,73.09
2022-09-10T01:52:26.182Z,72.99
2022-09-10T01:53:43.933Z,72.93
2022-09-10T01:55:00.967Z,72.90
2022-09-10T01:56:16.107Z,73.31
2022-09-10T01:57:30.413Z,73.07
2022-09-10T01:58:38.825Z,72.91
2022-09-10T01:59:49.519Z,73.26
2022-09-10T02:01:00.007Z,73.00
2022-09-10T02:02:09.389Z,73.25
2022-09-10T02:03:17.268Z,73.15
2022-09-10T02:04:21.552Z,73.24
2022-09-10T02:05:24.503Z,73.39
2022-09-10T02:06:29.486Z,73.26
2022-09-10T02:07:34.153Z,73.12
2022-09-10T02:08:39.457Z,73.19
2022-09-10T02:09:42.840Z,73.10
2022-09-10T02:10:50.336Z,73.28
2022-09-10T02:11:54.674Z,73.17
2022-09-10T02:12:56.340Z,73.46
2022-09-10T02:14:00.216Z,73.15
2022-09-10T02:15:02.202Z,73.45
2022-09-10T02:16:09.233Z,73.33
2022-09-10T02:17:11.447Z,73.51
2022-09-10T02:18:14.024Z,73.23
2022-09-10T02:19:16.775Z,73.56
2022-09-10T02:20:19.743Z,73.42
2022-09-10T02:21:21.428Z,73.52
2022-09-10T02:22:24.664Z,73.30
2022-09-10T02:23:31.516Z,73.41
2022-09-10T02:24:34.074Z,73.69
2022-09-10T02:25:37.288Z,73.44
2022-09-10T02:26:43.454Z,73.22
2022-09-10T02:27:45.301Z,73.11
2022-09-10T02:28:49.526Z,73.40
2022-09-10T02:29:52.480Z,73.68
2022-09-10T02:30:55.078Z,73.32
2022-09-10T02:31:56.640Z,73.36
2022-09-10T02:32:59.214Z,73.34
2022-09-10T02:34:03.034Z,73.70
2022-09-10T02:35:06.304Z,73.74
2022-09-10T02:36:07.947Z,73.62
2022-09-10T02:37:10.964Z,73.51
2022-09-10T02:38:12.627Z,73.94
2022-09-10T02:39:15.183Z,74.01
2022-09-10T02:40:19.271Z,73.92
2022-09-10T02:41:23.926Z,74.00
2022-09-10T02:42:26.219Z,73.92
2022-09-10T02:43:29.227Z,74.06
2022-09-10T02:44:31.033Z,73.83
2022-09-10T02:45:37.491Z,73.98
2022-09-10T02:46:39.074Z,74.12
2022-09-10T02:47:41.735Z,74.31
2022-09-10T02:48:43.363Z,74.00
2022-09-10T02:49:46.833Z,74.06
2022-09-10T02:50:48.457Z,74.19
2022-09-10T02:51:51.516Z,74.28
2022-09-10T02:52:53.750Z,74.11
2022-09-10T02:53:56.374Z,74.50
2022-09-10T02:54:57.942Z,74.32
2022-09-10T02:56:00.963Z,74.55
2022-09-10T02:57:02.495Z,74.68
2022-09-10T02:58:05.065Z,74.53
2022-09-10T02:59:06.591Z,74.51
2022-09-10T03:00:10.727Z,74.53
2022-09-10T03:01:18.327Z,74.72
2022-09-10T03:02:21.081Z,74.86
2022-09-10T03:03:23.237Z,74.46
2022-09-10T03:04:26.011Z,75.01
2022-09-10T03:05:27.550Z,74.98
2022-09-10T03:06:30.074Z,74.97
2022-09-10T03:07:32.075Z,75.09
2022-09-10T03:08:35.598Z,74.85
2022-09-10T03:09:37.134Z,74.98
2022-09-10T03:10:39.699Z,74.99
2022-09-10T03:11:41.730Z,75.25
2022-09-10T03:12:45.588Z,74.76
2022-09-10T03:13:47.810Z,74.93
2022-09-10T03:14:50.332Z,75.12
2022-09-10T03:15:52.770Z,75.21
2022-09-10T03:16:56.796Z,74.86
2022-09-10T03:17:58.333Z,75.36
2022-09-10T03:19:00.889Z,74.93
2022-09-10T03:20:03.813Z,75.28
2022-09-10T03:21:10.852Z,74.81
2022-09-10T03:22:12.395Z,75.08
2022-09-10T03:23:14.946Z,74.79
2022-09-10T03:24:16.555Z,74.90
2022-09-10T03:25:19.358Z,74.98
2022-09-10T03:26:22.341Z,75.18
2022-09-10T03:27:26.106Z,75.04
2022-09-10T03:28:28.236Z,75.07
2022-09-10T03:29:30.879Z,75.17
2022-09-10T03:30:32.693Z,75.07
2022-09-10T03:31:35.955Z,75.22
2022-09-10T03:32:39.056Z,75.14
2022-09-10T03:33:42.046Z,75.11
2022-09-10T03:34:44.167Z,75.08
2022-09-10T03:35:46.653Z,75.18
2022-09-10T03:36:49.427Z,75.10
2022-09-10T03:37:51.026Z,75.34
2022-09-10T03:38:53.667Z,75.38
2022-09-10T03:39:55.308Z,75.17
2022-09-10T03:40:58.024Z,75.08
2022-09-10T03:41:59.569Z,75.23
2022-09-10T03:43:02.778Z,75.23
2022-09-10T03:44:05.103Z,75.23
2022-09-10T03:45:09.104Z,75.20
2022-09-10T03:46:11.869Z,75.46
2022-09-10T03:47:14.370Z,75.30
2022-09-10T03:48:18.478Z,75.14
2022-09-10T03:49:20.984Z,75.10
2022-09-10T03:50:22.728Z,75.12
2022-09-10T03:51:25.317Z,75.44
2022-09-10T03:52:27.055Z,75.17
2022-09-10T03:53:29.539Z,75.28
2022-09-10T03:54:31.064Z,75.03
2022-09-10T03:55:34.142Z,75.24
2022-09-10T03:56:35.812Z,75.24
2022-09-10T03:57:38.859Z,75.32
2022-09-10T03:58:40.566Z,75.35
2022-09-10T03:59:43.210Z,75.36
2022-09-10T04:00:46.748Z,75.13
2022-09-10T04:01:50.634Z,75.11
2022-09-10T04:02:53.745Z,75.18
2022-09-10T04:03:58.182Z,75.12
2022-09-10T04:05:00.089Z,75.31
2022-09-10T04:06:03.028Z,75.29
2022-09-10T04:07:05.105Z,75.23
2022-09-10T04:08:09.795Z,75.48
2022-09-10T04:09:11.826Z,75.23
2022-09-10T04:10:14.567Z,75.11
2022-09-10T04:11:16.288Z,75.11
2022-09-10T04:12:18.814Z,75.39
2022-09-10T04:13:20.380Z,75.30
2022-09-10T04:14:22.875Z,75.35
2022-09-10T04:15:26.152Z,75.20
2022-09-10T04:16:28.680Z,75.25
2022-09-10T04:17:30.248Z,75.48
2022-09-10T04:18:34.976Z,75.24
2022-09-10T04:19:38.138Z,75.49
2022-09-10T04:20:40.821Z,75.20
2022-09-10T04:21:42.373Z,75.47
2022-09-10T04:22:44.834Z,75.53
2022-09-10T04:23:47.576Z,75.47
2022-09-10T04:24:50.090Z,75.32
2022-09-10T04:25:52.266Z,75.68
2022-09-10T04:26:54.786Z,75.65
2022-09-10T04:27:56.352Z,75.67
2022-09-10T04:28:59.239Z,75.61
2022-09-10T04:30:00.760Z,75.55
2022-09-10T04:31:03.251Z,75.44
2022-09-10T04:32:05.073Z,75.65
2022-09-10T04:33:08.058Z,75.73
2022-09-10T04:34:10.463Z,75.54
2022-09-10T04:35:15.412Z,75.46
2022-09-10T04:36:17.158Z,75.88
2022-09-10T04:37:19.809Z,75.85
2022-09-10T04:38:21.400Z,75.63
2022-09-10T04:39:23.877Z,75.77
2022-09-10T04:40:27.112Z,76.00
2022-09-10T04:41:29.634Z,75.82
2022-09-10T04:42:32.777Z,75.99
2022-09-10T04:43:35.569Z,76.32
2022-09-10T04:44:37.233Z,76.00
2022-09-10T04:45:41.458Z,76.12
2022-09-10T04:46:43.352Z,76.42
2022-09-10T04:47:46.595Z,76.46
2022-09-10T04:48:48.164Z,76.26
2022-09-10T04:49:50.669Z,76.62
2022-09-10T04:51:14.646Z,76.56
2022-09-10T04:52:17.894Z,76.83
2022-09-10T04:53:19.734Z,77.08
2022-09-10T04:54:22.283Z,76.74
2022-09-10T04:55:25.995Z,77.14
2022-09-10T04:56:28.606Z,76.87
2022-09-10T04:57:30.174Z,76.97
2022-09-10T04:58:37.926Z,77.01
2022-09-10T04:59:40.342Z,77.30
2022-09-10T05:00:42.907Z,77.34
2022-09-10T05:01:44.480Z,77.49
2022-09-10T05:02:47.376Z,77.72
2022-09-10T05:03:48.999Z,77.66
2022-09-10T05:04:51.666Z,77.98
2022-09-10T05:05:54.575Z,77.92
2022-09-10T05:06:57.690Z,77.86
2022-09-10T05:08:00.102Z,78.12
2022-09-10T05:09:03.784Z,78.25
2022-09-10T05:10:10.417Z,78.20
2022-09-10T05:11:13.083Z,78.51
2022-09-10T05:12:15.337Z,78.36
2022-09-10T05:13:18.082Z,78.49
2022-09-10T05:14:19.629Z,78.88
2022-09-10T05:15:24.828Z,79.04
2022-09-10T05:16:26.429Z,78.89
2022-09-10T05:17:29.336Z,79.03
2022-09-10T05:18:30.917Z,78.96
2022-09-10T05:19:33.646Z,78.96
2022-09-10T05:20:35.638Z,79.12
2022-09-10T05:21:39.577Z,79.14
2022-09-10T05:22:42.175Z,79.30
2022-09-10T05:23:45.021Z,79.33
2022-09-10T05:24:46.555Z,79.45
2022-09-10T05:25:49.584Z,79.38
2022-09-10T05:26:51.131Z,79.42
2022-09-10T05:27:53.675Z,79.47
2022-09-10T05:28:55.481Z,79.41
2022-09-10T05:29:58.381Z,79.47
2022-09-10T05:30:59.915Z,79.83
2022-09-10T05:32:02.771Z,79.61
2022-09-10T05:33:04.462Z,79.86
2022-09-10T05:34:08.319Z,80.03
2022-09-10T05:35:10.560Z,79.93
2022-09-10T05:36:13.120Z,79.97
2022-09-10T05:37:16.542Z,80.10
2022-09-10T05:38:19.269Z,80.05
2022-09-10T05:39:20.827Z,79.80
2022-09-10T05:40:23.403Z,79.83
2022-09-10T05:41:25.139Z,79.81
2022-09-10T05:42:27.845Z,80.17
2022-09-10T05:43:29.514Z,80.18
2022-09-10T05:44:32.027Z,80.07
2022-09-10T05:45:33.771Z,80.31
2022-09-10T05:46:36.409Z,80.24
2022-09-10T05:47:38.038Z,80.32
2022-09-10T05:48:41.752Z,80.28
2022-09-10T05:49:43.581Z,80.50
2022-09-10T05:50:46.749Z,80.20
2022-09-10T05:51:48.288Z,80.33
2022-09-10T05:52:52.329Z,80.28
2022-09-10T05:53:53.903Z,80.59
2022-09-10T05:54:56.815Z,80.25
2022-09-10T05:55:58.452Z,80.54
2022-09-10T05:57:00.937Z,80.64
2022-09-10T05:58:02.820Z,80.44
2022-09-10T05:59:05.511Z,80.34
2022-09-10T06:00:08.745Z,80.53
2022-09-10T06:01:15.310Z,80.48
2022-09-10T06:02:23.203Z,80.79
2022-09-10T06:03:26.546Z,80.59
2022-09-10T06:04:29.028Z,80.56
2022-09-10T06:05:30.544Z,80.51
2022-09-10T06:06:33.270Z,80.82
2022-09-10T06:07:34.866Z,81.08
2022-09-10T06:08:39.873Z,80.80
2022-09-10T06:09:42.455Z,80.92
2022-09-10T06:10:56.669Z,80.95
2022-09-10T06:11:58.197Z,81.05
2022-09-10T06:13:00.904Z,80.71
2022-09-10T06:14:02.448Z,80.94
2022-09-10T06:15:07.095Z,80.85
2022-09-10T06:16:08.855Z,80.72
2022-09-10T06:17:12.181Z,81.01
2022-09-10T06:18:13.711Z,80.96
2022-09-10T06:19:16.402Z,81.18
2022-09-10T06:20:17.944Z,81.16
2022-09-10T06:21:24.955Z,81.27
2022-09-10T06:22:30.819Z,81.46
2022-09-10T06:23:33.381Z,81.43
2022-09-10T06:24:36.598Z,81.42
2022-09-10T06:25:39.116Z,81.55
2022-09-10T06:26:41.478Z,81.60
2022-09-10T06:27:44.407Z,81.74
2022-09-10T06:28:46.377Z,81.50
2022-09-10T06:29:48.865Z,81.65
2022-09-10T06:30:50.590Z,81.69
2022-09-10T06:31:53.099Z,81.97
2022-09-10T06:32:54.640Z,81.93
2022-09-10T06:33:57.192Z,81.75
2022-09-10T06:34:58.719Z,81.75
2022-09-10T06:36:05.934Z,82.02
2022-09-10T06:37:07.431Z,81.91
2022-09-10T06:38:09.916Z,81.97
2022-09-10T06:39:12.407Z,82.12
2022-09-10T06:40:15.613Z,82.00
2022-09-10T06:41:19.347Z,82.28
2022-09-10T06:42:20.915Z,82.23
2022-09-10T06:43:25.920Z,82.38
2022-09-10T06:44:29.164Z,82.25
2022-09-10T06:45:32.338Z,82.37
2022-09-10T06:47:17.841Z,82.39
2022-09-10T06:49:19.196Z,82.12
2022-09-10T06:50:20.827Z,82.45
2022-09-10T06:51:23.346Z,82.53
2022-09-10T06:52:24.895Z,82.57
2022-09-10T06:53:29.805Z,82.62
2022-09-10T06:54:32.348Z,82.59
2022-09-10T06:55:36.345Z,82.77
2022-09-10T06:56:38.840Z,82.53
2022-09-10T06:57:40.367Z,82.65
2022-09-10T06:58:42.861Z,82.82
2022-09-10T06:59:44.991Z,82.76
2022-09-10T07:00:47.972Z,82.85
2022-09-10T07:01:50.511Z,82.70
2022-09-10T07:02:52.369Z,82.55
2022-09-10T07:03:57.481Z,82.80
2022-09-10T07:04:58.989Z,82.83
2022-09-10T07:06:04.178Z,82.97
2022-09-10T07:07:06.753Z,83.12
2022-09-10T07:08:08.357Z,83.00
2022-09-10T07:09:10.911Z,83.12
2022-09-10T07:10:12.467Z,83.05
2022-09-10T07:11:17.010Z,82.95
2022-09-10T07:12:18.511Z,82.98
2022-09-10T07:13:21.043Z,82.92
2022-09-10T07:14:22.554Z,83.07
2022-09-10T07:15:25.564Z,82.98
2022-09-10T07:16:28.395Z,83.39
2022-09-10T07:17:32.050Z,83.18
2022-09-10T07:18:33.931Z,83.22
2022-09-10T07:19:38.379Z,83.35
2022-09-10T07:20:40.277Z,83.35
2022-09-10T07:21:42.811Z,83.33
2022-09-10T07:22:44.361Z,83.21
2022-09-10T07:23:48.377Z,83.56
2022-09-10T07:24:51.353Z,83.36
2022-09-10T07:25:53.850Z,83.62
2022-09-10T07:26:57.561Z,83.46
2022-09-10T07:28:01.172Z,83.51
2022-09-10T07:29:02.710Z,83.25
2022-09-10T07:30:05.984Z,83.53
2022-09-10T07:31:13.090Z,83.31
2022-09-10T07:32:15.646Z,83.26
2022-09-10T07:33:17.159Z,83.32
2022-09-10T07:34:20.200Z,83.23
2022-09-10T07:35:22.763Z,83.31
2022-09-10T07:36:25.005Z,83.39
2022-09-10T07:37:27.499Z,83.44
2022-09-10T07:38:29.013Z,83.35
2022-09-10T07:39:31.595Z,83.24
2022-09-10T07:40:33.700Z,83.43
2022-09-10T07:41:36.742Z,83.18
2022-09-10T07:42:39.675Z,83.49
2022-09-10T07:43:43.679Z,83.21
2022-09-10T07:44:45.241Z,83.16
2022-09-10T07:45:47.796Z,83.07
2022-09-10T07:46:49.331Z,83.07
2022-09-10T07:47:51.861Z,83.30
2022-09-10T07:48:55.560Z,83.29
2022-09-10T07:49:58.069Z,83.04
2022-09-10T07:51:03.787Z,83.05
2022-09-10T07:52:07.177Z,82.95
2022-09-10T07:53:08.808Z,83.29
2022-09-10T07:54:11.313Z,82.90
2022-09-10T07:55:13.885Z,83.13
2022-09-10T07:56:16.446Z,82.66
2022-09-10T07:57:18.077Z,82.80
2022-09-10T07:58:22.187Z,83.04
2022-09-10T07:59:23.886Z,82.60
2022-09-10T08:00:26.647Z,82.73
2022-09-10T08:01:28.400Z,82.59
2022-09-10T08:02:31.033Z,82.88
2022-09-10T08:03:33.950Z,82.60
2022-09-10T08:04:37.472Z,82.26
2022-09-10T08:05:41.960Z,82.71
2022-09-10T08:06:45.007Z,82.23
2022-09-10T08:07:47.516Z,82.31
2022-09-10T08:08:49.050Z,82.42
2022-09-10T08:09:51.545Z,82.39
2022-09-10T08:10:54.054Z,82.32
2022-09-10T08:11:55.703Z,82.36
2022-09-10T08:12:59.356Z,82.06
2022-09-10T08:14:03.230Z,82.29
2022-09-10T08:15:06.077Z,81.93
2022-09-10T08:16:09.709Z,82.04
2022-09-10T08:17:11.268Z,81.83
2022-09-10T08:18:14.647Z,81.41
2022-09-10T08:19:17.988Z,81.19
2022-09-10T08:20:20.516Z,80.97
2022-09-10T08:21:23.107Z,80.98
2022-09-10T08:22:25.072Z,80.84
2022-09-10T08:23:28.954Z,80.74
2022-09-10T08:24:31.184Z,80.58
2022-09-10T08:25:34.641Z,80.75
2022-09-10T08:26:36.280Z,80.51
2022-09-10T08:27:38.758Z,80.59
2022-09-10T08:28:42.732Z,80.50
2022-09-10T08:29:46.719Z,80.32
2022-09-10T08:30:57.095Z,80.56
2022-09-10T08:31:59.830Z,80.29
2022-09-10T08:33:01.412Z,79.98
2022-09-10T08:34:03.992Z,79.98
2022-09-10T08:35:05.953Z,80.03
2022-09-10T08:36:10.504Z,80.25
2022-09-10T08:37:12.435Z,80.01
2022-09-10T08:38:14.944Z,80.25
2022-09-10T08:39:16.489Z,80.18
2022-09-10T08:40:19.114Z,80.39
2022-09-10T08:41:31.162Z,80.53
2022-09-10T08:42:40.359Z,80.14
2022-09-10T08:43:48.043Z,80.08
2022-09-10T08:44:55.167Z,80.16
2022-09-10T08:45:59.418Z,80.23
2022-09-10T08:47:12.952Z,79.82
2022-09-10T08:48:19.060Z,79.95
2022-09-10T08:49:31.419Z,79.75
2022-09-10T08:50:41.022Z,79.88
2022-09-10T08:51:48.532Z,79.90
2022-09-10T08:52:56.455Z,79.75
2022-09-10T08:54:02.593Z,79.92
2022-09-10T08:55:14.869Z,79.79
2022-09-10T08:56:21.301Z,79.68
2022-09-10T08:57:28.096Z,80.03
2022-09-10T08:58:44.951Z,79.46
2022-09-10T08:59:52.150Z,79.70
2022-09-10T09:00:59.962Z,79.71
2022-09-10T09:02:26.287Z,79.65
2022-09-10T09:03:41.160Z,79.75
2022-09-10T09:04:45.907Z,79.46
2022-09-10T09:05:50.584Z,80.16
2022-09-10T09:06:57.356Z,79.62
2022-09-10T09:08:00.357Z,79.68
2022-09-10T09:09:03.907Z,80.07
2022-09-10T09:10:19.155Z,79.97
2022-09-10T09:11:34.228Z,80.13
2022-09-10T09:12:45.743Z,80.44
2022-09-10T09:13:58.955Z,80.26
2022-09-10T09:15:09.201Z,80.23
2022-09-10T09:16:26.539Z,80.69
2022-09-10T09:17:46.127Z,80.38
2022-09-10T09:19:03.667Z,80.88
2022-09-10T09:20:17.240Z,81.08
2022-09-10T09:21:26.516Z,80.68
2022-09-10T09:22:39.794Z,81.16
2022-09-10T09:24:11.705Z,81.51
2022-09-10T09:25:25.303Z,81.23
2022-09-10T09:26:34.729Z,81.67
2022-09-10T09:27:42.164Z,81.76
2022-09-10T09:28:48.456Z,81.59
2022-09-10T09:29:57.285Z,81.93
2022-09-10T09:31:06.334Z,82.10
2022-09-10T09:32:17.132Z,82.29
2022-09-10T09:33:22.524Z,81.95
2022-09-10T09:34:32.443Z,81.89
2022-09-10T09:35:40.113Z,82.11
2022-09-10T09:36:46.961Z,82.32
2022-09-10T09:37:50.509Z,82.24
2022-09-10T09:38:52.551Z,82.28
2022-09-10T09:40:08.086Z,82.46
2022-09-10T09:41:21.008Z,82.31
2022-09-10T09:42:29.876Z,82.13
2022-09-10T09:43:42.391Z,81.96
2022-09-10T09:44:53.850Z,81.99
2022-09-10T09:45:59.374Z,82.13
2022-09-10T09:47:01.172Z,81.78
2022-09-10T09:48:07.466Z,81.64
2022-09-10T09:49:13.742Z,81.87
2022-09-10T09:50:18.294Z,82.10
2022-09-10T09:51:20.985Z,81.80
2022-09-10T09:52:25.311Z,82.15
2022-09-10T09:53:28.452Z,82.17
2022-09-10T09:55:02.987Z,82.37
2022-09-10T09:56:00.759Z,82.31
2022-09-10T09:57:02.856Z,82.02
2022-09-10T09:58:29.395Z,82.41
2022-09-10T09:59:34.632Z,82.09
2022-09-10T10:00:37.758Z,82.24
2022-09-10T10:01:43.242Z,82.25
2022-09-10T10:02:46.935Z,82.19
2022-09-10T10:03:54.376Z,82.20
2022-09-10T10:05:04.683Z,82.26
2022-09-10T10:06:09.805Z,82.31
2022-09-10T10:07:11.878Z,82.29
2022-09-10T10:08:30.624Z,82.50
2022-09-10T10:09:33.579Z,81.89
2022-09-10T10:10:36.151Z,82.30
2022-09-10T10:11:42.823Z,82.25
2022-09-10T10:12:50.617Z,82.31
2022-09-10T10:13:52.849Z,82.16
2022-09-10T10:14:55.391Z,82.54
2022-09-10T10:16:13.517Z,82.69
2022-09-10T10:17:31.137Z,82.74
2022-09-10T10:18:33.648Z,82.92
2022-09-10T10:19:38.380Z,82.97
2022-09-10T10:20:44.434Z,82.82
2022-09-10T10:21:47.259Z,82.95
2022-09-10T10:22:49.766Z,83.11
2022-09-10T10:23:51.320Z,83.38
2022-09-10T10:24:54.762Z,83.51
2022-09-10T10:25:56.468Z,83.26
2022-09-10T10:26:59.681Z,83.64
2022-09-10T10:28:01.939Z,83.42
2022-09-10T10:29:07.539Z,83.44
2022-09-10T10:30:22.564Z,83.85
2022-09-10T10:31:25.709Z,83.48
2022-09-10T10:32:50.712Z,83.92
2022-09-10T10:33:59.849Z,83.86
2022-09-10T10:35:20.193Z,83.83
2022-09-10T10:36:29.471Z,84.09
2022-09-10T10:37:41.380Z,83.94
2022-09-10T10:38:50.211Z,84.07
2022-09-10T10:40:14.009Z,84.02
2022-09-10T10:41:44.637Z,84.20
2022-09-10T10:42:59.116Z,83.88
2022-09-10T10:44:25.169Z,83.94
2022-09-10T10:45:37.518Z,83.95
2022-09-10T10:46:50.185Z,84.03
2022-09-10T10:47:57.080Z,84.12
2022-09-10T10:49:15.204Z,84.23
2022-09-10T10:50:28.625Z,83.88
2022-09-10T10:51:42.110Z,83.95
2022-09-10T10:52:57.135Z,84.10
2022-09-10T10:54:14.550Z,83.93
2022-09-10T10:55:23.361Z,83.85
2022-09-10T10:56:31.778Z,84.16
2022-09-10T10:57:53.487Z,83.95
2022-09-10T10:59:23.350Z,84.28
2022-09-10T11:00:27.501Z,83.85
2022-09-10T11:01:34.951Z,84.02
2022-09-10T11:02:44.191Z,84.08
2022-09-10T11:03:55.479Z,83.96
2022-09-10T11:05:02.787Z,83.82
2022-09-10T11:06:12.087Z,84.12
2022-09-10T11:07:22.062Z,84.05
2022-09-10T11:08:29.226Z,84.00
2022-09-10T11:09:38.965Z,84.00
2022-09-10T11:10:46.363Z,84.26
2022-09-10T11:11:55.621Z,84.19
2022-09-10T11:13:06.654Z,84.28
2022-09-10T11:14:20.401Z,84.37
2022-09-10T11:15:30.999Z,84.50
2022-09-10T11:16:40.448Z,84.47
2022-09-10T11:17:47.408Z,84.50
2022-09-10T11:18:54.071Z,84.48
2022-09-10T11:20:27.231Z,84.72
2022-09-10T11:21:35.634Z,84.60
2022-09-10T11:22:45.195Z,84.71
2022-09-10T11:23:51.488Z,84.88
2022-09-10T11:25:00.420Z,84.92
2022-09-10T11:26:07.512Z,84.77
2022-09-10T11:27:14.250Z,84.72
2022-09-10T11:28:20.028Z,84.73
2022-09-10T11:29:33.598Z,84.52
2022-09-10T11:30:41.010Z,84.70
2022-09-10T11:31:46.974Z,84.54
2022-09-10T11:32:57.124Z,84.68
2022-09-10T11:34:49.132Z,84.74
2022-09-10T11:36:01.092Z,84.17
2022-09-10T11:37:15.247Z,84.54
2022-09-10T11:38:24.669Z,84.50
2022-09-10T11:39:34.923Z,84.01
2022-09-10T11:40:43.324Z,84.23
2022-09-10T11:41:47.985Z,83.75
2022-09-10T11:42:56.272Z,84.13
2022-09-10T11:44:10.891Z,84.16
2022-09-10T11:45:22.889Z,84.19
2022-09-10T11:46:29.793Z,83.88
2022-09-10T11:47:38.010Z,83.55
2022-09-10T11:48:47.222Z,83.56
2022-09-10T11:49:54.111Z,83.37
2022-09-10T11:51:00.915Z,83.41
2022-09-10T11:52:03.056Z,83.23
2022-09-10T11:53:07.382Z,83.39
2022-09-10T11:54:14.508Z,82.75
2022-09-10T11:55:17.726Z,82.53
2022-09-10T11:56:52.833Z,82.55
2022-09-10T11:58:02.500Z,82.57
2022-09-10T11:59:14.441Z,82.74
2022-09-10T12:00:18.807Z,82.49
2022-09-10T12:01:31.044Z,82.35
2022-09-10T12:03:13.631Z,81.71
2022-09-10T12:04:40.106Z,81.36
2022-09-10T12:05:57.396Z,81.59
2022-09-10T12:07:10.073Z,81.33
2022-09-10T12:08:29.416Z,81.09
2022-09-10T12:09:42.732Z,81.44
2022-09-10T12:10:55.464Z,81.21
2022-09-10T12:12:06.006Z,81.29
2022-09-10T12:13:10.319Z,81.49
2022-09-10T12:14:16.204Z,81.28
2022-09-10T12:15:21.749Z,80.62
2022-09-10T12:16:32.583Z,80.39
2022-09-10T12:17:39.703Z,80.64
2022-09-10T12:18:44.961Z,80.07
2022-09-10T12:19:50.677Z,80.41
2022-09-10T12:20:56.912Z,80.22
2022-09-10T12:22:03.978Z,79.89
2022-09-10T12:23:06.553Z,79.72
2022-09-10T12:24:26.641Z,79.51
2022-09-10T12:25:34.592Z,79.24
2022-09-10T12:26:42.645Z,78.97
2022-09-10T12:27:47.099Z,79.20
2022-09-10T12:29:01.395Z,79.28
2022-09-10T12:31:02.601Z,78.88
2022-09-10T12:32:38.378Z,79.37
2022-09-10T12:34:07.488Z,79.15
2022-09-10T12:35:42.679Z,78.82
2022-09-10T12:37:22.650Z,78.80
2022-09-10T12:38:46.516Z,78.76
2022-09-10T12:40:29.108Z,78.65
2022-09-10T12:41:55.534Z,79.20
2022-09-10T12:43:00.219Z,79.15
2022-09-10T12:44:02.779Z,78.67
2022-09-10T12:45:05.703Z,79.04
2022-09-10T12:46:18.578Z,78.76
2022-09-10T12:47:42.156Z,78.84
2022-09-10T12:48:47.623Z,78.68
2022-09-10T12:49:51.661Z,79.05
2022-09-10T12:50:58.899Z,78.47
2022-09-10T12:52:00.880Z,78.35
2022-09-10T12:53:18.502Z,78.25
2022-09-10T12:54:38.525Z,78.22
2022-09-10T12:55:59.418Z,78.30
2022-09-10T12:57:18.753Z,77.58
2022-09-10T12:58:27.109Z,77.43
2022-09-10T13:00:13.420Z,77.28
2022-09-10T13:01:35.801Z,77.11
2022-09-10T13:02:48.414Z,76.88
2022-09-10T13:03:56.156Z,76.84
2022-09-10T13:05:01.726Z,76.50
2022-09-10T13:06:06.863Z,76.29
2022-09-10T13:07:22.712Z,76.19
2022-09-10T13:08:27.642Z,76.49
2022-09-10T13:09:34.472Z,75.72
2022-09-10T13:10:36.902Z,75.89
2022-09-10T13:11:46.798Z,75.87
2022-09-10T13:12:52.966Z,75.88
2022-09-10T13:14:02.069Z,75.82
2022-09-10T13:15:05.871Z,75.73
2022-09-10T13:16:15.670Z,75.80
2022-09-10T13:17:41.052Z,76.07
2022-09-10T13:18:43.462Z,75.64
2022-09-10T13:19:51.874Z,75.94
2022-09-10T13:20:53.667Z,76.21
2022-09-10T13:21:56.669Z,76.33
2022-09-10T13:23:01.441Z,76.19
2022-09-10T13:24:04.224Z,76.87
2022-09-10T13:25:25.329Z,76.75
2022-09-10T13:26:50.228Z,76.96
2022-09-10T13:27:52.062Z,77.30
2022-09-10T13:29:05.692Z,77.05
2022-09-10T13:30:16.109Z,77.47
2022-09-10T13:31:25.830Z,77.69
2022-09-10T13:32:29.920Z,77.84
2022-09-10T13:33:38.892Z,77.41
2022-09-10T13:35:21.454Z,77.82
2022-09-10T13:36:32.676Z,77.89
2022-09-10T13:37:55.990Z,77.65
2022-09-10T13:39:39.580Z,78.10
2022-09-10T13:41:01.078Z,78.04
2022-09-10T13:42:24.546Z,78.28
2022-09-10T13:43:41.997Z,78.36
2022-09-10T13:45:16.434Z,78.04
2022-09-10T13:46:28.191Z,78.59
2022-09-10T13:47:35.867Z,78.51
2022-09-10T13:48:46.010Z,78.33
2022-09-10T13:49:53.616Z,79.05
2022-09-10T13:51:01.366Z,78.97
2022-09-10T13:52:05.675Z,78.98
2022-09-10T13:53:10.587Z,78.88
2022-09-10T13:54:27.646Z,79.40
2022-09-10T13:55:31.686Z,79.45
2022-09-10T13:56:35.555Z,79.41
2022-09-10T13:57:40.935Z,79.22
2022-09-10T13:58:48.348Z,79.81
2022-09-10T13:59:53.566Z,79.43
2022-09-10T14:00:58.367Z,79.53
2022-09-10T14:02:00.088Z,79.44
2022-09-10T14:03:03.352Z,79.36
2022-09-10T14:04:23.467Z,79.80
2022-09-10T14:05:34.490Z,79.83
2022-09-10T14:06:36.291Z,79.75
2022-09-10T14:07:38.872Z,79.55
2022-09-10T14:08:52.203Z,79.69
2022-09-10T14:09:58.301Z,79.70
2022-09-10T14:11:06.416Z,79.90
2022-09-10T14:12:10.440Z,79.81
2022-09-10T14:13:14.449Z,79.33
2022-09-10T14:14:21.726Z,79.52
2022-09-10T14:15:29.291Z,79.19
2022-09-10T14:16:35.727Z,79.20
2022-09-10T14:17:43.114Z,79.12
2022-09-10T14:18:48.360Z,79.28
2022-09-10T14:19:57.863Z,79.47